KLWB/LWB METAR and TAF weather

Enter ICAO airport designator
Station Type Date Time Source
KLWB METAR 2020/04/03 07:55 UTC NOAA

KLWB 030755Z AUTO 34007KT 10SM CLR 06/M07 A2998 RMK AO2 T00571070


Station Type Date Time Source
KLWB Decoded METAR 2020/04/03 07:55 UTC NOAA

Lewisburg / Greenbrier, WV, United States (KLWB) 37-52N 080-24W
Apr 03, 2020 - 03:55 AM EDT / 2020.04.03 0755 UTC
Wind: from the NNW (340 degrees) at 8 MPH (7 KT):0
Visibility: 10 mile(s):0
Sky conditions: clear
Temperature: 42.3 F (5.7 C)
Dew Point: 19.4 F (-7.0 C)
Relative Humidity: 39%
Pressure (altimeter): 29.98 in. Hg (1015 hPa)
ob: KLWB 030755Z AUTO 34007KT 10SM CLR 06/M07 A2998 RMK AO2 T00571070
cycle: 8

Station Type Date Time Source
KLWB TAF 2020/04/03 06:22 UTC NOAA

TAF KLWB 030520Z 0306/0406 32009KT P6SM SKC WS020/33040KT
FM031400 32012G20KT P6SM SKC
FM032200 32010KT P6SM SKC
FM040000 33006KT P6SM SKC
FM040500 34003KT P6SM SKC

Example: see airport list